Serrita, Brazil
Current Conditions -  °F | °C
As of 8:00 PM on Friday 24 Oct 2014 (Local Time) from SBJU Reporting Station
Few Clouds Few Clouds  
Wind Chill: 90°   Ceiling: Unl
Heat Index: 90°   Visibility: 6mi
Dew Point: 59°   Wind: 7mph
Humidity: 36%   Direction: 190°S
Pressure: 29.91"   Gusts: NA
Location:  7.93°S, 39.3°W
Report Text: SBJU 242300Z 19006KT 9999 FEW022 32/15 Q1013
Loading
Personal Weather Stations






























Interactive Weather Map
Tropical Storm Tracking
New forecast layout! Learn more

10-Day Weather Forecast

Advertisements
Track Severe Weather on mobile